sensor_id;sensor_type;location;lat;lon;timestamp;temperature;humidity
2497;DHT22;1259;48.306;14.374;2022-07-17T00:00:45;17.10;85.40
2497;DHT22;1259;48.306;14.374;2022-07-17T00:03:13;17.00;85.60
2497;DHT22;1259;48.306;14.374;2022-07-17T00:05:41;16.90;85.60
2497;DHT22;1259;48.306;14.374;2022-07-17T00:08:08;16.90;85.70
2497;DHT22;1259;48.306;14.374;2022-07-17T00:10:39;16.90;85.70
2497;DHT22;1259;48.306;14.374;2022-07-17T00:13:07;17.00;85.70
2497;DHT22;1259;48.306;14.374;2022-07-17T00:15:34;17.00;85.40
2497;DHT22;1259;48.306;14.374;2022-07-17T00:18:03;17.00;85.30
2497;DHT22;1259;48.306;14.374;2022-07-17T00:20:32;17.00;85.70
2497;DHT22;1259;48.306;14.374;2022-07-17T00:22:59;17.20;85.20
2497;DHT22;1259;48.306;14.374;2022-07-17T00:25:26;17.30;84.90
2497;DHT22;1259;48.306;14.374;2022-07-17T00:27:54;17.40;84.30
2497;DHT22;1259;48.306;14.374;2022-07-17T00:30:21;17.50;84.20
2497;DHT22;1259;48.306;14.374;2022-07-17T00:32:49;17.50;84.30
2497;DHT22;1259;48.306;14.374;2022-07-17T00:35:15;17.50;84.20
2497;DHT22;1259;48.306;14.374;2022-07-17T00:37:45;17.40;84.50
2497;DHT22;1259;48.306;14.374;2022-07-17T00:40:19;17.60;83.80
2497;DHT22;1259;48.306;14.374;2022-07-17T00:42:47;17.30;84.50
2497;DHT22;1259;48.306;14.374;2022-07-17T00:45:16;17.40;84.40
2497;DHT22;1259;48.306;14.374;2022-07-17T00:47:51;17.40;84.20
2497;DHT22;1259;48.306;14.374;2022-07-17T00:50:19;17.30;84.60
2497;DHT22;1259;48.306;14.374;2022-07-17T00:52:47;17.30;84.80
2497;DHT22;1259;48.306;14.374;2022-07-17T00:55:14;17.40;84.40
2497;DHT22;1259;48.306;14.374;2022-07-17T00:57:42;17.20;84.50
2497;DHT22;1259;48.306;14.374;2022-07-17T01:00:12;17.20;84.30
2497;DHT22;1259;48.306;14.374;2022-07-17T01:02:43;17.10;84.90
2497;DHT22;1259;48.306;14.374;2022-07-17T01:05:10;17.10;84.80
2497;DHT22;1259;48.306;14.374;2022-07-17T01:07:37;17.30;84.50
2497;DHT22;1259;48.306;14.374;2022-07-17T01:10:05;17.30;84.40
2497;DHT22;1259;48.306;14.374;2022-07-17T01:12:34;17.00;84.90
2497;DHT22;1259;48.306;14.374;2022-07-17T01:15:01;17.20;84.20
2497;DHT22;1259;48.306;14.374;2022-07-17T01:17:30;17.30;84.20
2497;DHT22;1259;48.306;14.374;2022-07-17T01:19:58;17.10;84.90
2497;DHT22;1259;48.306;14.374;2022-07-17T01:22:26;17.00;85.40
2497;DHT22;1259;48.306;14.374;2022-07-17T01:24:53;17.00;85.00
2497;DHT22;1259;48.306;14.374;2022-07-17T01:27:20;17.00;85.40
2497;DHT22;1259;48.306;14.374;2022-07-17T01:29:47;16.90;86.00
2497;DHT22;1259;48.306;14.374;2022-07-17T01:32:14;16.90;85.60
2497;DHT22;1259;48.306;14.374;2022-07-17T01:34:41;16.80;86.00
2497;DHT22;1259;48.306;14.374;2022-07-17T01:37:08;16.80;86.10
2497;DHT22;1259;48.306;14.374;2022-07-17T01:39:36;16.70;86.60
2497;DHT22;1259;48.306;14.374;2022-07-17T01:42:22;16.50;87.20
2497;DHT22;1259;48.306;14.374;2022-07-17T01:44:50;16.50;87.40
2497;DHT22;1259;48.306;14.374;2022-07-17T01:47:17;16.40;87.80
2497;DHT22;1259;48.306;14.374;2022-07-17T01:49:45;16.30;88.00
2497;DHT22;1259;48.306;14.374;2022-07-17T01:52:12;16.30;87.80
2497;DHT22;1259;48.306;14.374;2022-07-17T01:54:41;16.10;88.90
2497;DHT22;1259;48.306;14.374;2022-07-17T01:57:09;16.10;89.00
2497;DHT22;1259;48.306;14.374;2022-07-17T01:59:36;16.30;88.20
2497;DHT22;1259;48.306;14.374;2022-07-17T02:02:03;16.30;87.70
2497;DHT22;1259;48.306;14.374;2022-07-17T02:04:31;16.50;87.40
2497;DHT22;1259;48.306;14.374;2022-07-17T02:06:58;16.40;86.80
2497;DHT22;1259;48.306;14.374;2022-07-17T02:09:25;16.30;87.40
2497;DHT22;1259;48.306;14.374;2022-07-17T02:11:53;16.10;88.10
2497;DHT22;1259;48.306;14.374;2022-07-17T02:14:20;16.10;88.50
2497;DHT22;1259;48.306;14.374;2022-07-17T02:16:47;16.00;89.30
2497;DHT22;1259;48.306;14.374;2022-07-17T02:19:14;15.80;89.90
2497;DHT22;1259;48.306;14.374;2022-07-17T02:21:41;15.70;90.20
2497;DHT22;1259;48.306;14.374;2022-07-17T02:24:08;15.70;90.10
2497;DHT22;1259;48.306;14.374;2022-07-17T02:26:35;15.70;89.90
2497;DHT22;1259;48.306;14.374;2022-07-17T02:29:04;15.90;89.00
2497;DHT22;1259;48.306;14.374;2022-07-17T02:31:31;15.80;88.60
2497;DHT22;1259;48.306;14.374;2022-07-17T02:33:58;15.80;88.60
2497;DHT22;1259;48.306;14.374;2022-07-17T02:36:25;15.90;88.20
2497;DHT22;1259;48.306;14.374;2022-07-17T02:38:52;15.90;88.20
2497;DHT22;1259;48.306;14.374;2022-07-17T02:41:19;15.90;88.10
2497;DHT22;1259;48.306;14.374;2022-07-17T02:43:46;15.90;88.60
2497;DHT22;1259;48.306;14.374;2022-07-17T02:46:14;15.80;89.10
2497;DHT22;1259;48.306;14.374;2022-07-17T02:48:41;15.70;89.40
2497;DHT22;1259;48.306;14.374;2022-07-17T02:51:09;15.80;89.40
2497;DHT22;1259;48.306;14.374;2022-07-17T02:53:36;15.90;89.20
2497;DHT22;1259;48.306;14.374;2022-07-17T02:56:03;15.90;89.40
2497;DHT22;1259;48.306;14.374;2022-07-17T02:58:30;15.90;89.50
2497;DHT22;1259;48.306;14.374;2022-07-17T03:00:57;16.00;89.20
2497;DHT22;1259;48.306;14.374;2022-07-17T03:03:26;15.90;89.80
2497;DHT22;1259;48.306;14.374;2022-07-17T03:05:53;15.90;88.50
2497;DHT22;1259;48.306;14.374;2022-07-17T03:08:20;15.90;88.20
2497;DHT22;1259;48.306;14.374;2022-07-17T03:10:46;15.90;88.90
2497;DHT22;1259;48.306;14.374;2022-07-17T03:13:16;15.90;87.70
2497;DHT22;1259;48.306;14.374;2022-07-17T03:15:43;15.90;87.80
2497;DHT22;1259;48.306;14.374;2022-07-17T03:18:10;15.80;88.20
2497;DHT22;1259;48.306;14.374;2022-07-17T03:20:39;15.90;88.40
2497;DHT22;1259;48.306;14.374;2022-07-17T03:23:06;15.90;88.20
2497;DHT22;1259;48.306;14.374;2022-07-17T03:25:33;16.10;87.60
2497;DHT22;1259;48.306;14.374;2022-07-17T03:28:00;16.00;87.90
2497;DHT22;1259;48.306;14.374;2022-07-17T03:30:27;16.00;87.80
2497;DHT22;1259;48.306;14.374;2022-07-17T03:32:54;16.00;87.60
2497;DHT22;1259;48.306;14.374;2022-07-17T03:35:20;16.00;87.20
2497;DHT22;1259;48.306;14.374;2022-07-17T03:37:49;16.00;87.20
2497;DHT22;1259;48.306;14.374;2022-07-17T03:40:16;16.00;87.10
2497;DHT22;1259;48.306;14.374;2022-07-17T03:42:43;15.90;87.40
2497;DHT22;1259;48.306;14.374;2022-07-17T03:45:10;15.90;87.20
2497;DHT22;1259;48.306;14.374;2022-07-17T03:47:37;15.80;87.50
2497;DHT22;1259;48.306;14.374;2022-07-17T03:50:05;15.80;87.60
2497;DHT22;1259;48.306;14.374;2022-07-17T03:52:32;15.90;87.30
2497;DHT22;1259;48.306;14.374;2022-07-17T03:55:01;15.90;87.30
2497;DHT22;1259;48.306;14.374;2022-07-17T03:57:28;15.90;87.90
2497;DHT22;1259;48.306;14.374;2022-07-17T03:59:55;15.90;87.00
2497;DHT22;1259;48.306;14.374;2022-07-17T04:02:22;16.00;87.50
2497;DHT22;1259;48.306;14.374;2022-07-17T04:04:49;16.00;87.30
2497;DHT22;1259;48.306;14.374;2022-07-17T04:07:16;15.90;87.00
2497;DHT22;1259;48.306;14.374;2022-07-17T04:09:57;15.90;87.30
2497;DHT22;1259;48.306;14.374;2022-07-17T04:12:27;16.00;87.20
2497;DHT22;1259;48.306;14.374;2022-07-17T04:14:54;16.00;87.10
2497;DHT22;1259;48.306;14.374;2022-07-17T04:17:22;16.00;86.90
2497;DHT22;1259;48.306;14.374;2022-07-17T04:19:49;16.10;86.80
2497;DHT22;1259;48.306;14.374;2022-07-17T04:22:16;16.10;87.00
2497;DHT22;1259;48.306;14.374;2022-07-17T04:24:43;16.00;86.80
2497;DHT22;1259;48.306;14.374;2022-07-17T04:27:11;16.10;86.40
2497;DHT22;1259;48.306;14.374;2022-07-17T04:29:40;16.10;87.10
2497;DHT22;1259;48.306;14.374;2022-07-17T04:32:07;16.10;87.10
2497;DHT22;1259;48.306;14.374;2022-07-17T04:34:35;16.20;87.30
2497;DHT22;1259;48.306;14.374;2022-07-17T04:37:03;16.10;87.50
2497;DHT22;1259;48.306;14.374;2022-07-17T04:39:30;16.20;87.00
2497;DHT22;1259;48.306;14.374;2022-07-17T04:41:57;16.20;86.80
2497;DHT22;1259;48.306;14.374;2022-07-17T04:44:24;16.30;86.60
2497;DHT22;1259;48.306;14.374;2022-07-17T04:46:53;16.30;86.20
2497;DHT22;1259;48.306;14.374;2022-07-17T04:49:21;16.40;86.70
2497;DHT22;1259;48.306;14.374;2022-07-17T04:51:48;16.40;86.80
2497;DHT22;1259;48.306;14.374;2022-07-17T04:54:15;16.60;85.90
2497;DHT22;1259;48.306;14.374;2022-07-17T04:56:42;16.70;85.90
2497;DHT22;1259;48.306;14.374;2022-07-17T04:59:09;16.50;86.80
2497;DHT22;1259;48.306;14.374;2022-07-17T05:01:36;16.40;87.70
2497;DHT22;1259;48.306;14.374;2022-07-17T05:04:04;16.10;90.50
2497;DHT22;1259;48.306;14.374;2022-07-17T05:06:31;15.90;90.30
2497;DHT22;1259;48.306;14.374;2022-07-17T05:08:58;15.90;91.10
2497;DHT22;1259;48.306;14.374;2022-07-17T05:11:25;15.80;91.70
2497;DHT22;1259;48.306;14.374;2022-07-17T05:13:52;16.00;93.40
2497;DHT22;1259;48.306;14.374;2022-07-17T05:16:20;16.30;93.10
2497;DHT22;1259;48.306;14.374;2022-07-17T05:18:47;16.40;92.90
2497;DHT22;1259;48.306;14.374;2022-07-17T05:21:15;16.40;94.40
2497;DHT22;1259;48.306;14.374;2022-07-17T05:23:42;16.30;92.00
2497;DHT22;1259;48.306;14.374;2022-07-17T05:26:09;16.30;93.30
2497;DHT22;1259;48.306;14.374;2022-07-17T05:28:36;16.30;92.50
2497;DHT22;1259;48.306;14.374;2022-07-17T05:31:04;16.30;91.70
2497;DHT22;1259;48.306;14.374;2022-07-17T05:33:31;16.50;92.00
2497;DHT22;1259;48.306;14.374;2022-07-17T05:35:58;16.50;91.80
2497;DHT22;1259;48.306;14.374;2022-07-17T05:38:26;16.50;92.20
2497;DHT22;1259;48.306;14.374;2022-07-17T05:40:53;16.60;92.80
2497;DHT22;1259;48.306;14.374;2022-07-17T05:43:20;16.70;92.70
2497;DHT22;1259;48.306;14.374;2022-07-17T05:45:47;16.80;92.20
2497;DHT22;1259;48.306;14.374;2022-07-17T05:48:14;16.90;92.00
2497;DHT22;1259;48.306;14.374;2022-07-17T05:50:41;17.10;93.00
2497;DHT22;1259;48.306;14.374;2022-07-17T05:53:08;17.40;92.40
2497;DHT22;1259;48.306;14.374;2022-07-17T05:55:36;17.70;91.70
2497;DHT22;1259;48.306;14.374;2022-07-17T05:58:03;17.80;91.30
2497;DHT22;1259;48.306;14.374;2022-07-17T06:00:31;17.60;91.00
2497;DHT22;1259;48.306;14.374;2022-07-17T06:02:58;17.60;91.60
2497;DHT22;1259;48.306;14.374;2022-07-17T06:05:25;17.50;89.90
2497;DHT22;1259;48.306;14.374;2022-07-17T06:07:52;17.80;90.10
2497;DHT22;1259;48.306;14.374;2022-07-17T06:10:19;17.80;90.80
2497;DHT22;1259;48.306;14.374;2022-07-17T06:12:48;18.30;91.40
2497;DHT22;1259;48.306;14.374;2022-07-17T06:15:15;18.50;90.60
2497;DHT22;1259;48.306;14.374;2022-07-17T06:17:43;18.50;87.30
2497;DHT22;1259;48.306;14.374;2022-07-17T06:20:11;18.80;89.70
2497;DHT22;1259;48.306;14.374;2022-07-17T06:22:38;18.60;86.60
2497;DHT22;1259;48.306;14.374;2022-07-17T06:25:07;18.90;88.20
2497;DHT22;1259;48.306;14.374;2022-07-17T06:27:34;19.00;86.30
2497;DHT22;1259;48.306;14.374;2022-07-17T06:30:03;18.90;87.50
2497;DHT22;1259;48.306;14.374;2022-07-17T06:32:30;18.70;90.10
2497;DHT22;1259;48.306;14.374;2022-07-17T06:34:57;18.50;89.70
2497;DHT22;1259;48.306;14.374;2022-07-17T06:37:24;19.10;88.70
2497;DHT22;1259;48.306;14.374;2022-07-17T06:39:51;19.10;90.20
2497;DHT22;1259;48.306;14.374;2022-07-17T06:42:18;19.20;86.10
2497;DHT22;1259;48.306;14.374;2022-07-17T06:44:45;19.20;89.70
2497;DHT22;1259;48.306;14.374;2022-07-17T06:47:14;19.50;84.70
2497;DHT22;1259;48.306;14.374;2022-07-17T06:49:41;19.40;84.00
2497;DHT22;1259;48.306;14.374;2022-07-17T06:52:09;19.70;83.90
2497;DHT22;1259;48.306;14.374;2022-07-17T06:54:36;19.70;84.90
2497;DHT22;1259;48.306;14.374;2022-07-17T06:57:03;20.00;86.30
2497;DHT22;1259;48.306;14.374;2022-07-17T06:59:30;20.20;84.90
2497;DHT22;1259;48.306;14.374;2022-07-17T07:01:57;19.40;84.10
2497;DHT22;1259;48.306;14.374;2022-07-17T07:04:25;19.40;87.30
2497;DHT22;1259;48.306;14.374;2022-07-17T07:06:52;19.70;85.90
2497;DHT22;1259;48.306;14.374;2022-07-17T07:09:20;19.80;84.80
2497;DHT22;1259;48.306;14.374;2022-07-17T07:11:47;19.60;84.10
2497;DHT22;1259;48.306;14.374;2022-07-17T07:14:14;19.70;85.90
2497;DHT22;1259;48.306;14.374;2022-07-17T07:16:41;19.90;85.20
2497;DHT22;1259;48.306;14.374;2022-07-17T07:19:08;19.70;83.00
2497;DHT22;1259;48.306;14.374;2022-07-17T07:21:36;20.00;86.20
2497;DHT22;1259;48.306;14.374;2022-07-17T07:24:04;20.30;86.50
2497;DHT22;1259;48.306;14.374;2022-07-17T07:26:31;20.90;88.60
2497;DHT22;1259;48.306;14.374;2022-07-17T07:28:58;21.30;87.00
2497;DHT22;1259;48.306;14.374;2022-07-17T07:31:25;21.60;86.40
2497;DHT22;1259;48.306;14.374;2022-07-17T07:33:52;21.50;83.60
2497;DHT22;1259;48.306;14.374;2022-07-17T07:36:19;21.20;83.90
2497;DHT22;1259;48.306;14.374;2022-07-17T07:38:47;21.20;80.80
2497;DHT22;1259;48.306;14.374;2022-07-17T07:41:14;20.80;82.20
2497;DHT22;1259;48.306;14.374;2022-07-17T07:43:41;20.60;84.20
2497;DHT22;1259;48.306;14.374;2022-07-17T07:46:08;21.20;85.60
2497;DHT22;1259;48.306;14.374;2022-07-17T07:48:35;20.90;83.60
2497;DHT22;1259;48.306;14.374;2022-07-17T07:51:02;21.50;87.20
2497;DHT22;1259;48.306;14.374;2022-07-17T07:53:29;22.10;84.30
2497;DHT22;1259;48.306;14.374;2022-07-17T07:55:57;22.20;84.90
2497;DHT22;1259;48.306;14.374;2022-07-17T07:58:24;22.20;84.80
2497;DHT22;1259;48.306;14.374;2022-07-17T08:00:51;21.80;82.10
2497;DHT22;1259;48.306;14.374;2022-07-17T08:03:18;22.00;84.40
2497;DHT22;1259;48.306;14.374;2022-07-17T08:05:45;22.50;84.40
2497;DHT22;1259;48.306;14.374;2022-07-17T08:08:12;22.70;79.20
2497;DHT22;1259;48.306;14.374;2022-07-17T08:10:39;23.10;84.00
2497;DHT22;1259;48.306;14.374;2022-07-17T08:13:07;23.30;83.40
2497;DHT22;1259;48.306;14.374;2022-07-17T08:15:35;22.30;82.00
2497;DHT22;1259;48.306;14.374;2022-07-17T08:18:03;22.70;78.90
2497;DHT22;1259;48.306;14.374;2022-07-17T08:20:30;23.20;83.20
2497;DHT22;1259;48.306;14.374;2022-07-17T08:22:57;22.80;81.60
2497;DHT22;1259;48.306;14.374;2022-07-17T08:25:24;22.40;83.80
2497;DHT22;1259;48.306;14.374;2022-07-17T08:27:51;22.20;80.60
2497;DHT22;1259;48.306;14.374;2022-07-17T08:30:19;22.80;78.20
2497;DHT22;1259;48.306;14.374;2022-07-17T08:32:46;23.30;79.80
2497;DHT22;1259;48.306;14.374;2022-07-17T08:35:13;23.00;81.80
2497;DHT22;1259;48.306;14.374;2022-07-17T08:37:45;23.20;79.70
2497;DHT22;1259;48.306;14.374;2022-07-17T08:40:17;23.80;79.70
2497;DHT22;1259;48.306;14.374;2022-07-17T08:42:44;23.50;76.10
2497;DHT22;1259;48.306;14.374;2022-07-17T08:45:12;23.30;77.80
2497;DHT22;1259;48.306;14.374;2022-07-17T08:47:40;23.60;77.90
2497;DHT22;1259;48.306;14.374;2022-07-17T08:50:08;23.20;74.60
2497;DHT22;1259;48.306;14.374;2022-07-17T08:52:37;23.50;76.60
2497;DHT22;1259;48.306;14.374;2022-07-17T08:55:07;24.10;74.10
2497;DHT22;1259;48.306;14.374;2022-07-17T08:57:37;24.20;75.50
2497;DHT22;1259;48.306;14.374;2022-07-17T09:00:06;23.60;74.30
2497;DHT22;1259;48.306;14.374;2022-07-17T09:02:36;23.90;72.30
2497;DHT22;1259;48.306;14.374;2022-07-17T09:05:07;24.10;76.70
2497;DHT22;1259;48.306;14.374;2022-07-17T09:07:45;24.40;74.30
2497;DHT22;1259;48.306;14.374;2022-07-17T09:10:12;24.10;73.10
2497;DHT22;1259;48.306;14.374;2022-07-17T09:12:39;24.40;73.00
2497;DHT22;1259;48.306;14.374;2022-07-17T09:15:15;23.60;75.20
2497;DHT22;1259;48.306;14.374;2022-07-17T09:17:48;23.80;74.60
2497;DHT22;1259;48.306;14.374;2022-07-17T09:20:16;24.30;74.50
2497;DHT22;1259;48.306;14.374;2022-07-17T09:22:55;24.00;77.60
2497;DHT22;1259;48.306;14.374;2022-07-17T09:25:35;24.30;74.00
2497;DHT22;1259;48.306;14.374;2022-07-17T09:28:03;24.70;71.20
2497;DHT22;1259;48.306;14.374;2022-07-17T09:30:31;25.00;74.50
2497;DHT22;1259;48.306;14.374;2022-07-17T09:32:58;24.80;75.30
2497;DHT22;1259;48.306;14.374;2022-07-17T09:35:26;25.00;74.70
2497;DHT22;1259;48.306;14.374;2022-07-17T09:37:54;25.00;72.10
2497;DHT22;1259;48.306;14.374;2022-07-17T09:40:22;25.30;74.90
2497;DHT22;1259;48.306;14.374;2022-07-17T09:43:07;25.20;70.60
2497;DHT22;1259;48.306;14.374;2022-07-17T09:45:35;25.10;72.90
2497;DHT22;1259;48.306;14.374;2022-07-17T09:48:03;24.30;74.20
2497;DHT22;1259;48.306;14.374;2022-07-17T09:50:32;24.40;72.50
2497;DHT22;1259;48.306;14.374;2022-07-17T09:53:00;24.40;70.50
2497;DHT22;1259;48.306;14.374;2022-07-17T09:55:29;24.30;72.70
2497;DHT22;1259;48.306;14.374;2022-07-17T09:57:59;24.10;71.70
2497;DHT22;1259;48.306;14.374;2022-07-17T10:00:27;24.30;72.50
2497;DHT22;1259;48.306;14.374;2022-07-17T10:02:54;24.60;71.70
2497;DHT22;1259;48.306;14.374;2022-07-17T10:05:22;25.00;72.50
2497;DHT22;1259;48.306;14.374;2022-07-17T10:07:51;25.40;76.80
2497;DHT22;1259;48.306;14.374;2022-07-17T10:10:18;25.70;75.00
2497;DHT22;1259;48.306;14.374;2022-07-17T10:12:48;26.10;75.00
2497;DHT22;1259;48.306;14.374;2022-07-17T10:15:16;26.10;70.80
2497;DHT22;1259;48.306;14.374;2022-07-17T10:17:44;25.80;67.60
2497;DHT22;1259;48.306;14.374;2022-07-17T10:20:11;25.00;68.40
2497;DHT22;1259;48.306;14.374;2022-07-17T10:22:43;25.20;71.60
2497;DHT22;1259;48.306;14.374;2022-07-17T10:25:14;25.20;71.80
2497;DHT22;1259;48.306;14.374;2022-07-17T10:27:48;25.70;72.50
2497;DHT22;1259;48.306;14.374;2022-07-17T10:30:22;25.90;73.30
2497;DHT22;1259;48.306;14.374;2022-07-17T10:32:54;26.20;72.90
2497;DHT22;1259;48.306;14.374;2022-07-17T10:35:22;26.40;72.60
2497;DHT22;1259;48.306;14.374;2022-07-17T10:37:49;26.40;68.70
2497;DHT22;1259;48.306;14.374;2022-07-17T10:40:20;26.40;70.10
2497;DHT22;1259;48.306;14.374;2022-07-17T10:42:57;26.00;68.00
2497;DHT22;1259;48.306;14.374;2022-07-17T10:45:29;26.50;67.30
2497;DHT22;1259;48.306;14.374;2022-07-17T10:48:00;25.30;63.50
2497;DHT22;1259;48.306;14.374;2022-07-17T10:50:30;25.00;66.70
2497;DHT22;1259;48.306;14.374;2022-07-17T10:53:04;24.60;66.50
2497;DHT22;1259;48.306;14.374;2022-07-17T10:55:34;25.10;65.40
2497;DHT22;1259;48.306;14.374;2022-07-17T10:58:03;25.60;67.90
2497;DHT22;1259;48.306;14.374;2022-07-17T11:00:30;26.00;69.30
2497;DHT22;1259;48.306;14.374;2022-07-17T11:02:57;26.40;71.00
2497;DHT22;1259;48.306;14.374;2022-07-17T11:05:34;26.40;63.00
2497;DHT22;1259;48.306;14.374;2022-07-17T11:08:01;25.30;63.60
2497;DHT22;1259;48.306;14.374;2022-07-17T11:10:36;25.10;66.40
2497;DHT22;1259;48.306;14.374;2022-07-17T11:13:08;25.50;67.40
2497;DHT22;1259;48.306;14.374;2022-07-17T11:15:41;26.00;66.90
2497;DHT22;1259;48.306;14.374;2022-07-17T11:18:13;25.90;64.80
2497;DHT22;1259;48.306;14.374;2022-07-17T11:20:51;25.90;66.30
2497;DHT22;1259;48.306;14.374;2022-07-17T11:23:18;26.00;66.70
2497;DHT22;1259;48.306;14.374;2022-07-17T11:25:59;25.50;62.40
2497;DHT22;1259;48.306;14.374;2022-07-17T11:28:36;25.20;63.80
2497;DHT22;1259;48.306;14.374;2022-07-17T11:31:14;25.20;67.10
2497;DHT22;1259;48.306;14.374;2022-07-17T11:33:47;25.20;66.10
2497;DHT22;1259;48.306;14.374;2022-07-17T11:36:20;25.60;63.50
2497;DHT22;1259;48.306;14.374;2022-07-17T11:38:47;25.70;62.80
2497;DHT22;1259;48.306;14.374;2022-07-17T11:41:17;25.70;60.40
2497;DHT22;1259;48.306;14.374;2022-07-17T11:43:44;25.60;63.20
2497;DHT22;1259;48.306;14.374;2022-07-17T11:46:12;25.60;63.90
2497;DHT22;1259;48.306;14.374;2022-07-17T11:48:41;25.60;63.40
2497;DHT22;1259;48.306;14.374;2022-07-17T11:51:08;25.50;64.40
2497;DHT22;1259;48.306;14.374;2022-07-17T11:53:37;24.90;62.30
2497;DHT22;1259;48.306;14.374;2022-07-17T11:56:05;25.20;66.20
2497;DHT22;1259;48.306;14.374;2022-07-17T11:58:45;25.70;65.40
2497;DHT22;1259;48.306;14.374;2022-07-17T12:01:13;25.90;65.10
2497;DHT22;1259;48.306;14.374;2022-07-17T12:03:40;26.10;64.20
2497;DHT22;1259;48.306;14.374;2022-07-17T12:06:08;26.30;61.80
2497;DHT22;1259;48.306;14.374;2022-07-17T12:08:36;26.40;62.60
2497;DHT22;1259;48.306;14.374;2022-07-17T12:11:05;26.60;63.80
2497;DHT22;1259;48.306;14.374;2022-07-17T12:13:41;26.60;63.20
2497;DHT22;1259;48.306;14.374;2022-07-17T12:16:24;26.70;60.80
2497;DHT22;1259;48.306;14.374;2022-07-17T12:18:59;26.20;61.70
2497;DHT22;1259;48.306;14.374;2022-07-17T12:21:29;26.30;61.40
2497;DHT22;1259;48.306;14.374;2022-07-17T12:23:59;25.90;64.90
2497;DHT22;1259;48.306;14.374;2022-07-17T12:26:26;25.60;63.90
2497;DHT22;1259;48.306;14.374;2022-07-17T12:28:53;25.30;62.80
2497;DHT22;1259;48.306;14.374;2022-07-17T12:31:22;25.60;66.90
2497;DHT22;1259;48.306;14.374;2022-07-17T12:33:51;25.40;63.70
2497;DHT22;1259;48.306;14.374;2022-07-17T12:36:19;25.30;63.70
2497;DHT22;1259;48.306;14.374;2022-07-17T12:38:47;25.30;64.10
2497;DHT22;1259;48.306;14.374;2022-07-17T12:41:14;25.70;63.80
2497;DHT22;1259;48.306;14.374;2022-07-17T12:43:41;25.20;61.90
2497;DHT22;1259;48.306;14.374;2022-07-17T12:46:09;25.50;60.90
2497;DHT22;1259;48.306;14.374;2022-07-17T12:48:37;25.80;59.80
2497;DHT22;1259;48.306;14.374;2022-07-17T12:51:07;25.70;62.00
2497;DHT22;1259;48.306;14.374;2022-07-17T12:53:34;25.80;63.20
2497;DHT22;1259;48.306;14.374;2022-07-17T12:56:02;25.90;61.50
2497;DHT22;1259;48.306;14.374;2022-07-17T12:58:29;25.90;59.00
2497;DHT22;1259;48.306;14.374;2022-07-17T13:00:56;26.10;62.40
2497;DHT22;1259;48.306;14.374;2022-07-17T13:03:23;26.30;62.40
2497;DHT22;1259;48.306;14.374;2022-07-17T13:05:52;26.40;62.50
2497;DHT22;1259;48.306;14.374;2022-07-17T13:08:19;26.40;65.50
2497;DHT22;1259;48.306;14.374;2022-07-17T13:10:46;26.30;61.60
2497;DHT22;1259;48.306;14.374;2022-07-17T13:13:13;26.00;60.50
2497;DHT22;1259;48.306;14.374;2022-07-17T13:15:40;26.20;62.80
2497;DHT22;1259;48.306;14.374;2022-07-17T13:18:07;26.30;64.30
2497;DHT22;1259;48.306;14.374;2022-07-17T13:20:35;26.20;63.90
2497;DHT22;1259;48.306;14.374;2022-07-17T13:23:03;26.20;64.20
2497;DHT22;1259;48.306;14.374;2022-07-17T13:25:30;26.10;64.40
2497;DHT22;1259;48.306;14.374;2022-07-17T13:27:58;26.10;63.40
2497;DHT22;1259;48.306;14.374;2022-07-17T13:30:26;26.20;64.60
2497;DHT22;1259;48.306;14.374;2022-07-17T13:32:53;26.20;64.20
2497;DHT22;1259;48.306;14.374;2022-07-17T13:35:20;26.20;63.60
2497;DHT22;1259;48.306;14.374;2022-07-17T13:37:47;26.20;64.10
2497;DHT22;1259;48.306;14.374;2022-07-17T13:40:15;26.20;66.20
2497;DHT22;1259;48.306;14.374;2022-07-17T13:42:44;26.30;65.40
2497;DHT22;1259;48.306;14.374;2022-07-17T13:45:12;26.20;63.80
2497;DHT22;1259;48.306;14.374;2022-07-17T13:47:39;26.20;65.20
2497;DHT22;1259;48.306;14.374;2022-07-17T13:50:08;26.30;66.10
2497;DHT22;1259;48.306;14.374;2022-07-17T13:52:36;26.00;59.60
2497;DHT22;1259;48.306;14.374;2022-07-17T13:55:03;25.90;63.70
2497;DHT22;1259;48.306;14.374;2022-07-17T13:57:32;26.00;63.90
2497;DHT22;1259;48.306;14.374;2022-07-17T13:59:59;26.00;62.40
2497;DHT22;1259;48.306;14.374;2022-07-17T14:02:27;25.90;60.50
2497;DHT22;1259;48.306;14.374;2022-07-17T14:04:55;25.90;61.50
2497;DHT22;1259;48.306;14.374;2022-07-17T14:07:22;25.80;63.10
2497;DHT22;1259;48.306;14.374;2022-07-17T14:09:49;25.90;61.80
2497;DHT22;1259;48.306;14.374;2022-07-17T14:12:16;25.90;58.60
2497;DHT22;1259;48.306;14.374;2022-07-17T14:14:44;25.60;57.20
2497;DHT22;1259;48.306;14.374;2022-07-17T14:17:11;25.70;56.80
2497;DHT22;1259;48.306;14.374;2022-07-17T14:19:38;25.80;59.70
2497;DHT22;1259;48.306;14.374;2022-07-17T14:22:05;25.90;60.60
2497;DHT22;1259;48.306;14.374;2022-07-17T14:24:32;25.90;60.20
2497;DHT22;1259;48.306;14.374;2022-07-17T14:26:59;25.80;62.50
2497;DHT22;1259;48.306;14.374;2022-07-17T14:29:26;26.10;63.70
2497;DHT22;1259;48.306;14.374;2022-07-17T14:31:54;26.00;59.70
2497;DHT22;1259;48.306;14.374;2022-07-17T14:34:21;26.00;60.70
2497;DHT22;1259;48.306;14.374;2022-07-17T14:36:49;25.90;59.30
2497;DHT22;1259;48.306;14.374;2022-07-17T14:39:16;25.50;57.50
2497;DHT22;1259;48.306;14.374;2022-07-17T14:41:44;25.30;58.10
2497;DHT22;1259;48.306;14.374;2022-07-17T14:44:12;25.40;62.10
2497;DHT22;1259;48.306;14.374;2022-07-17T14:46:39;25.60;61.80
2497;DHT22;1259;48.306;14.374;2022-07-17T14:49:07;25.60;60.00
2497;DHT22;1259;48.306;14.374;2022-07-17T14:51:34;25.60;60.40
2497;DHT22;1259;48.306;14.374;2022-07-17T14:54:01;25.60;60.00
2497;DHT22;1259;48.306;14.374;2022-07-17T14:56:28;25.60;60.40
2497;DHT22;1259;48.306;14.374;2022-07-17T14:58:55;25.60;57.80
2497;DHT22;1259;48.306;14.374;2022-07-17T15:01:22;25.60;57.00
2497;DHT22;1259;48.306;14.374;2022-07-17T15:03:49;25.60;60.50
2497;DHT22;1259;48.306;14.374;2022-07-17T15:06:18;25.80;62.70
2497;DHT22;1259;48.306;14.374;2022-07-17T15:08:45;25.80;58.90
2497;DHT22;1259;48.306;14.374;2022-07-17T15:11:12;25.80;60.80
2497;DHT22;1259;48.306;14.374;2022-07-17T15:13:39;25.70;61.70
2497;DHT22;1259;48.306;14.374;2022-07-17T15:16:06;25.80;64.20
2497;DHT22;1259;48.306;14.374;2022-07-17T15:18:34;25.80;61.70
2497;DHT22;1259;48.306;14.374;2022-07-17T15:21:01;25.70;60.80
2497;DHT22;1259;48.306;14.374;2022-07-17T15:23:29;25.60;62.50
2497;DHT22;1259;48.306;14.374;2022-07-17T15:25:56;25.60;61.40
2497;DHT22;1259;48.306;14.374;2022-07-17T15:28:23;25.50;59.50
2497;DHT22;1259;48.306;14.374;2022-07-17T15:30:50;25.60;60.50
2497;DHT22;1259;48.306;14.374;2022-07-17T15:33:17;25.70;61.20
2497;DHT22;1259;48.306;14.374;2022-07-17T15:35:44;25.60;59.50
2497;DHT22;1259;48.306;14.374;2022-07-17T15:38:11;25.60;58.60
2497;DHT22;1259;48.306;14.374;2022-07-17T15:40:39;25.50;58.90
2497;DHT22;1259;48.306;14.374;2022-07-17T15:43:06;25.50;61.60
2497;DHT22;1259;48.306;14.374;2022-07-17T15:45:33;25.60;63.50
2497;DHT22;1259;48.306;14.374;2022-07-17T15:48:01;25.50;62.10
2497;DHT22;1259;48.306;14.374;2022-07-17T15:50:28;25.60;60.40